sensor_id;sensor_type;location;lat;lon;timestamp;P1;durP1;ratioP1;P2;durP2;ratioP2
6825;SDS011;3451;52.476;13.316;2023-03-23T00:01:00;2.53;;;1.70;;
6825;SDS011;3451;52.476;13.316;2023-03-23T00:03:26;2.83;;;1.80;;
6825;SDS011;3451;52.476;13.316;2023-03-23T00:05:54;3.77;;;2.00;;
6825;SDS011;3451;52.476;13.316;2023-03-23T00:08:24;3.47;;;2.00;;
6825;SDS011;3451;52.476;13.316;2023-03-23T00:10:51;2.97;;;1.83;;
6825;SDS011;3451;52.476;13.316;2023-03-23T00:13:17;3.37;;;2.00;;
6825;SDS011;3451;52.476;13.316;2023-03-23T00:15:45;4.10;;;2.50;;
6825;SDS011;3451;52.476;13.316;2023-03-23T00:18:10;2.93;;;2.07;;
6825;SDS011;3451;52.476;13.316;2023-03-23T00:20:54;2.93;;;2.07;;
6825;SDS011;3451;52.476;13.316;2023-03-23T00:23:20;2.60;;;1.77;;
6825;SDS011;3451;52.476;13.316;2023-03-23T00:25:46;3.63;;;2.27;;
6825;SDS011;3451;52.476;13.316;2023-03-23T00:28:12;2.87;;;1.90;;
6825;SDS011;3451;52.476;13.316;2023-03-23T00:30:38;3.30;;;2.10;;
6825;SDS011;3451;52.476;13.316;2023-03-23T00:33:03;2.57;;;1.90;;
6825;SDS011;3451;52.476;13.316;2023-03-23T00:35:29;3.90;;;1.83;;
6825;SDS011;3451;52.476;13.316;2023-03-23T00:37:55;3.50;;;2.00;;
6825;SDS011;3451;52.476;13.316;2023-03-23T00:40:21;2.67;;;2.00;;
6825;SDS011;3451;52.476;13.316;2023-03-23T00:42:46;4.47;;;2.00;;
6825;SDS011;3451;52.476;13.316;2023-03-23T00:45:13;3.27;;;1.80;;
6825;SDS011;3451;52.476;13.316;2023-03-23T00:47:40;4.17;;;2.10;;
6825;SDS011;3451;52.476;13.316;2023-03-23T00:50:06;4.20;;;2.30;;
6825;SDS011;3451;52.476;13.316;2023-03-23T00:52:32;2.90;;;2.00;;
6825;SDS011;3451;52.476;13.316;2023-03-23T00:54:57;2.97;;;1.80;;
6825;SDS011;3451;52.476;13.316;2023-03-23T00:57:22;3.07;;;2.10;;
6825;SDS011;3451;52.476;13.316;2023-03-23T00:59:50;2.93;;;2.13;;
6825;SDS011;3451;52.476;13.316;2023-03-23T01:02:15;3.17;;;1.97;;
6825;SDS011;3451;52.476;13.316;2023-03-23T01:04:41;2.83;;;2.00;;
6825;SDS011;3451;52.476;13.316;2023-03-23T01:07:09;5.20;;;2.20;;
6825;SDS011;3451;52.476;13.316;2023-03-23T01:09:37;4.43;;;1.93;;
6825;SDS011;3451;52.476;13.316;2023-03-23T01:12:05;4.37;;;2.30;;
6825;SDS011;3451;52.476;13.316;2023-03-23T01:14:30;3.33;;;2.00;;
6825;SDS011;3451;52.476;13.316;2023-03-23T01:16:56;4.07;;;2.17;;
6825;SDS011;3451;52.476;13.316;2023-03-23T01:19:21;3.00;;;1.90;;
6825;SDS011;3451;52.476;13.316;2023-03-23T01:21:47;2.67;;;2.00;;
6825;SDS011;3451;52.476;13.316;2023-03-23T01:24:12;3.63;;;1.70;;
6825;SDS011;3451;52.476;13.316;2023-03-23T01:26:37;2.93;;;2.00;;
6825;SDS011;3451;52.476;13.316;2023-03-23T01:29:02;4.77;;;2.30;;
6825;SDS011;3451;52.476;13.316;2023-03-23T01:31:28;2.87;;;2.27;;
6825;SDS011;3451;52.476;13.316;2023-03-23T01:33:53;5.10;;;2.30;;
6825;SDS011;3451;52.476;13.316;2023-03-23T01:36:24;3.40;;;2.20;;
6825;SDS011;3451;52.476;13.316;2023-03-23T01:38:51;3.40;;;1.83;;
6825;SDS011;3451;52.476;13.316;2023-03-23T01:41:17;3.33;;;2.00;;
6825;SDS011;3451;52.476;13.316;2023-03-23T01:43:53;3.13;;;2.07;;
6825;SDS011;3451;52.476;13.316;2023-03-23T01:46:19;3.03;;;2.23;;
6825;SDS011;3451;52.476;13.316;2023-03-23T01:48:44;3.63;;;1.93;;
6825;SDS011;3451;52.476;13.316;2023-03-23T01:51:13;3.30;;;2.00;;
6825;SDS011;3451;52.476;13.316;2023-03-23T01:53:45;4.37;;;1.90;;
6825;SDS011;3451;52.476;13.316;2023-03-23T01:56:10;2.30;;;2.00;;
6825;SDS011;3451;52.476;13.316;2023-03-23T01:58:38;4.20;;;1.90;;
6825;SDS011;3451;52.476;13.316;2023-03-23T02:01:05;2.97;;;2.00;;
6825;SDS011;3451;52.476;13.316;2023-03-23T02:03:32;4.47;;;2.47;;
6825;SDS011;3451;52.476;13.316;2023-03-23T02:05:59;2.83;;;1.80;;
6825;SDS011;3451;52.476;13.316;2023-03-23T02:08:26;4.53;;;1.97;;
6825;SDS011;3451;52.476;13.316;2023-03-23T02:10:53;3.13;;;2.07;;
6825;SDS011;3451;52.476;13.316;2023-03-23T02:13:18;2.80;;;2.30;;
6825;SDS011;3451;52.476;13.316;2023-03-23T02:15:55;3.70;;;2.20;;
6825;SDS011;3451;52.476;13.316;2023-03-23T02:18:27;3.43;;;1.90;;
6825;SDS011;3451;52.476;13.316;2023-03-23T02:21:17;3.57;;;1.90;;
6825;SDS011;3451;52.476;13.316;2023-03-23T02:24:01;3.57;;;2.00;;
6825;SDS011;3451;52.476;13.316;2023-03-23T02:26:35;4.37;;;1.97;;
6825;SDS011;3451;52.476;13.316;2023-03-23T02:29:08;2.20;;;1.90;;
6825;SDS011;3451;52.476;13.316;2023-03-23T02:31:47;2.73;;;1.90;;
6825;SDS011;3451;52.476;13.316;2023-03-23T02:34:30;3.73;;;2.20;;
6825;SDS011;3451;52.476;13.316;2023-03-23T02:37:01;5.27;;;2.00;;
6825;SDS011;3451;52.476;13.316;2023-03-23T02:39:34;2.90;;;2.10;;
6825;SDS011;3451;52.476;13.316;2023-03-23T02:42:02;3.73;;;2.10;;
6825;SDS011;3451;52.476;13.316;2023-03-23T02:44:29;4.83;;;2.00;;
6825;SDS011;3451;52.476;13.316;2023-03-23T02:46:56;5.00;;;2.10;;
6825;SDS011;3451;52.476;13.316;2023-03-23T02:49:22;2.73;;;2.10;;
6825;SDS011;3451;52.476;13.316;2023-03-23T02:51:49;3.83;;;1.80;;
6825;SDS011;3451;52.476;13.316;2023-03-23T02:54:15;3.73;;;1.87;;
6825;SDS011;3451;52.476;13.316;2023-03-23T02:56:41;4.83;;;2.40;;
6825;SDS011;3451;52.476;13.316;2023-03-23T02:59:07;2.70;;;2.07;;
6825;SDS011;3451;52.476;13.316;2023-03-23T03:03:59;2.53;;;2.00;;
6825;SDS011;3451;52.476;13.316;2023-03-23T03:09:02;7.40;;;2.30;;
6825;SDS011;3451;52.476;13.316;2023-03-23T03:11:29;3.03;;;2.00;;
6825;SDS011;3451;52.476;13.316;2023-03-23T03:13:58;3.40;;;2.10;;
6825;SDS011;3451;52.476;13.316;2023-03-23T03:16:33;3.50;;;2.13;;
6825;SDS011;3451;52.476;13.316;2023-03-23T03:21:29;4.17;;;2.23;;
6825;SDS011;3451;52.476;13.316;2023-03-23T03:23:56;2.43;;;2.00;;
6825;SDS011;3451;52.476;13.316;2023-03-23T03:26:24;2.50;;;1.97;;
6825;SDS011;3451;52.476;13.316;2023-03-23T03:28:54;3.57;;;2.20;;
6825;SDS011;3451;52.476;13.316;2023-03-23T03:31:20;4.17;;;2.03;;
6825;SDS011;3451;52.476;13.316;2023-03-23T03:33:46;3.70;;;2.07;;
6825;SDS011;3451;52.476;13.316;2023-03-23T03:36:16;3.50;;;1.83;;
6825;SDS011;3451;52.476;13.316;2023-03-23T03:38:42;3.73;;;2.13;;
6825;SDS011;3451;52.476;13.316;2023-03-23T03:41:08;3.83;;;2.20;;
6825;SDS011;3451;52.476;13.316;2023-03-23T03:43:33;2.77;;;2.20;;
6825;SDS011;3451;52.476;13.316;2023-03-23T03:46:00;5.00;;;2.20;;
6825;SDS011;3451;52.476;13.316;2023-03-23T03:48:25;2.50;;;2.10;;
6825;SDS011;3451;52.476;13.316;2023-03-23T03:50:50;3.30;;;1.93;;
6825;SDS011;3451;52.476;13.316;2023-03-23T03:53:17;3.63;;;2.30;;
6825;SDS011;3451;52.476;13.316;2023-03-23T03:55:42;3.87;;;2.10;;
6825;SDS011;3451;52.476;13.316;2023-03-23T03:58:13;2.80;;;2.00;;
6825;SDS011;3451;52.476;13.316;2023-03-23T04:00:38;3.70;;;2.20;;
6825;SDS011;3451;52.476;13.316;2023-03-23T04:03:04;5.20;;;1.83;;
6825;SDS011;3451;52.476;13.316;2023-03-23T04:05:29;5.50;;;2.40;;
6825;SDS011;3451;52.476;13.316;2023-03-23T04:07:54;3.50;;;1.90;;
6825;SDS011;3451;52.476;13.316;2023-03-23T04:10:26;3.53;;;2.10;;
6825;SDS011;3451;52.476;13.316;2023-03-23T04:12:52;3.97;;;2.10;;
6825;SDS011;3451;52.476;13.316;2023-03-23T04:15:17;4.33;;;2.10;;
6825;SDS011;3451;52.476;13.316;2023-03-23T04:17:42;3.67;;;2.37;;
6825;SDS011;3451;52.476;13.316;2023-03-23T04:20:08;3.97;;;2.00;;
6825;SDS011;3451;52.476;13.316;2023-03-23T04:22:37;3.40;;;2.33;;
6825;SDS011;3451;52.476;13.316;2023-03-23T04:25:02;5.13;;;2.23;;
6825;SDS011;3451;52.476;13.316;2023-03-23T04:27:31;3.10;;;2.03;;
6825;SDS011;3451;52.476;13.316;2023-03-23T04:29:56;3.20;;;2.30;;
6825;SDS011;3451;52.476;13.316;2023-03-23T04:32:23;2.57;;;2.00;;
6825;SDS011;3451;52.476;13.316;2023-03-23T04:34:50;3.00;;;2.00;;
6825;SDS011;3451;52.476;13.316;2023-03-23T04:37:15;2.67;;;2.00;;
6825;SDS011;3451;52.476;13.316;2023-03-23T04:39:40;3.37;;;2.00;;
6825;SDS011;3451;52.476;13.316;2023-03-23T04:42:06;3.43;;;2.20;;
6825;SDS011;3451;52.476;13.316;2023-03-23T04:44:31;3.57;;;2.23;;
6825;SDS011;3451;52.476;13.316;2023-03-23T04:46:57;3.90;;;2.20;;
6825;SDS011;3451;52.476;13.316;2023-03-23T04:49:26;3.47;;;2.10;;
6825;SDS011;3451;52.476;13.316;2023-03-23T04:51:51;4.00;;;2.20;;
6825;SDS011;3451;52.476;13.316;2023-03-23T04:54:17;4.73;;;2.20;;
6825;SDS011;3451;52.476;13.316;2023-03-23T04:56:42;3.63;;;2.10;;
6825;SDS011;3451;52.476;13.316;2023-03-23T04:59:07;2.80;;;2.03;;
6825;SDS011;3451;52.476;13.316;2023-03-23T05:01:33;3.33;;;2.13;;
6825;SDS011;3451;52.476;13.316;2023-03-23T05:04:01;4.50;;;2.27;;
6825;SDS011;3451;52.476;13.316;2023-03-23T05:06:27;3.83;;;2.30;;
6825;SDS011;3451;52.476;13.316;2023-03-23T05:08:52;3.17;;;1.97;;
6825;SDS011;3451;52.476;13.316;2023-03-23T05:11:17;2.60;;;2.10;;
6825;SDS011;3451;52.476;13.316;2023-03-23T05:13:42;4.70;;;2.40;;
6825;SDS011;3451;52.476;13.316;2023-03-23T05:16:09;4.80;;;2.23;;
6825;SDS011;3451;52.476;13.316;2023-03-23T05:18:34;4.50;;;2.33;;
6825;SDS011;3451;52.476;13.316;2023-03-23T05:21:00;2.97;;;2.10;;
6825;SDS011;3451;52.476;13.316;2023-03-23T05:23:25;2.83;;;2.30;;
6825;SDS011;3451;52.476;13.316;2023-03-23T05:25:54;3.83;;;2.43;;
6825;SDS011;3451;52.476;13.316;2023-03-23T05:28:20;3.33;;;2.20;;
6825;SDS011;3451;52.476;13.316;2023-03-23T05:30:46;4.07;;;1.83;;
6825;SDS011;3451;52.476;13.316;2023-03-23T05:33:12;3.50;;;2.30;;
6825;SDS011;3451;52.476;13.316;2023-03-23T05:35:37;3.80;;;2.10;;
6825;SDS011;3451;52.476;13.316;2023-03-23T05:38:02;2.83;;;2.10;;
6825;SDS011;3451;52.476;13.316;2023-03-23T05:40:29;3.23;;;1.80;;
6825;SDS011;3451;52.476;13.316;2023-03-23T05:42:55;3.23;;;2.27;;
6825;SDS011;3451;52.476;13.316;2023-03-23T05:45:23;2.37;;;1.83;;
6825;SDS011;3451;52.476;13.316;2023-03-23T05:47:49;2.60;;;1.90;;
6825;SDS011;3451;52.476;13.316;2023-03-23T05:50:14;3.53;;;1.93;;
6825;SDS011;3451;52.476;13.316;2023-03-23T05:52:39;4.80;;;2.50;;
6825;SDS011;3451;52.476;13.316;2023-03-23T05:55:04;2.53;;;1.83;;
6825;SDS011;3451;52.476;13.316;2023-03-23T05:57:30;3.07;;;1.70;;
6825;SDS011;3451;52.476;13.316;2023-03-23T05:59:56;3.60;;;2.00;;
6825;SDS011;3451;52.476;13.316;2023-03-23T06:02:22;6.20;;;2.30;;
6825;SDS011;3451;52.476;13.316;2023-03-23T06:04:49;4.83;;;2.03;;
6825;SDS011;3451;52.476;13.316;2023-03-23T06:07:14;3.90;;;2.00;;
6825;SDS011;3451;52.476;13.316;2023-03-23T06:09:40;4.60;;;2.00;;
6825;SDS011;3451;52.476;13.316;2023-03-23T06:12:06;3.50;;;1.60;;
6825;SDS011;3451;52.476;13.316;2023-03-23T06:14:31;4.70;;;2.07;;
6825;SDS011;3451;52.476;13.316;2023-03-23T06:16:56;5.27;;;2.00;;
6825;SDS011;3451;52.476;13.316;2023-03-23T06:19:21;4.37;;;2.03;;
6825;SDS011;3451;52.476;13.316;2023-03-23T06:21:48;3.90;;;1.57;;
6825;SDS011;3451;52.476;13.316;2023-03-23T06:24:13;2.43;;;1.50;;
6825;SDS011;3451;52.476;13.316;2023-03-23T06:26:39;3.47;;;1.83;;
6825;SDS011;3451;52.476;13.316;2023-03-23T06:29:06;3.30;;;1.90;;
6825;SDS011;3451;52.476;13.316;2023-03-23T06:31:36;3.70;;;1.63;;
6825;SDS011;3451;52.476;13.316;2023-03-23T06:34:02;3.37;;;1.90;;
6825;SDS011;3451;52.476;13.316;2023-03-23T06:36:27;3.17;;;1.80;;
6825;SDS011;3451;52.476;13.316;2023-03-23T06:38:53;2.60;;;1.60;;
6825;SDS011;3451;52.476;13.316;2023-03-23T06:41:18;2.70;;;1.60;;
6825;SDS011;3451;52.476;13.316;2023-03-23T06:43:43;2.90;;;1.60;;
6825;SDS011;3451;52.476;13.316;2023-03-23T06:46:11;3.50;;;1.60;;
6825;SDS011;3451;52.476;13.316;2023-03-23T06:48:36;4.33;;;1.87;;
6825;SDS011;3451;52.476;13.316;2023-03-23T06:51:01;5.10;;;2.03;;
6825;SDS011;3451;52.476;13.316;2023-03-23T06:53:27;4.53;;;2.03;;
6825;SDS011;3451;52.476;13.316;2023-03-23T06:55:52;3.20;;;1.80;;
6825;SDS011;3451;52.476;13.316;2023-03-23T06:58:18;2.50;;;1.60;;
6825;SDS011;3451;52.476;13.316;2023-03-23T07:00:43;2.93;;;1.77;;
6825;SDS011;3451;52.476;13.316;2023-03-23T07:03:09;5.20;;;2.00;;
6825;SDS011;3451;52.476;13.316;2023-03-23T07:05:34;6.57;;;2.00;;
6825;SDS011;3451;52.476;13.316;2023-03-23T07:08:00;5.23;;;2.10;;
6825;SDS011;3451;52.476;13.316;2023-03-23T07:10:26;3.70;;;1.60;;
6825;SDS011;3451;52.476;13.316;2023-03-23T07:12:51;5.00;;;2.17;;
6825;SDS011;3451;52.476;13.316;2023-03-23T07:15:16;2.50;;;1.67;;
6825;SDS011;3451;52.476;13.316;2023-03-23T07:17:42;5.93;;;2.10;;
6825;SDS011;3451;52.476;13.316;2023-03-23T07:20:07;3.77;;;1.90;;
6825;SDS011;3451;52.476;13.316;2023-03-23T07:22:32;4.33;;;1.90;;
6825;SDS011;3451;52.476;13.316;2023-03-23T07:24:58;3.47;;;1.73;;
6825;SDS011;3451;52.476;13.316;2023-03-23T07:27:23;3.03;;;1.60;;
6825;SDS011;3451;52.476;13.316;2023-03-23T07:29:49;4.40;;;1.80;;
6825;SDS011;3451;52.476;13.316;2023-03-23T07:32:15;4.80;;;1.90;;
6825;SDS011;3451;52.476;13.316;2023-03-23T07:34:40;4.27;;;1.93;;
6825;SDS011;3451;52.476;13.316;2023-03-23T07:37:06;5.33;;;1.80;;
6825;SDS011;3451;52.476;13.316;2023-03-23T07:39:31;6.57;;;2.00;;
6825;SDS011;3451;52.476;13.316;2023-03-23T07:41:58;3.83;;;1.80;;
6825;SDS011;3451;52.476;13.316;2023-03-23T07:44:23;3.93;;;1.70;;
6825;SDS011;3451;52.476;13.316;2023-03-23T07:46:48;2.30;;;1.70;;
6825;SDS011;3451;52.476;13.316;2023-03-23T07:49:14;2.37;;;2.00;;
6825;SDS011;3451;52.476;13.316;2023-03-23T07:51:39;3.53;;;1.83;;
6825;SDS011;3451;52.476;13.316;2023-03-23T07:54:05;2.80;;;1.70;;
6825;SDS011;3451;52.476;13.316;2023-03-23T07:56:32;3.60;;;2.20;;
6825;SDS011;3451;52.476;13.316;2023-03-23T07:58:57;2.17;;;1.77;;
6825;SDS011;3451;52.476;13.316;2023-03-23T08:01:23;5.67;;;1.77;;
6825;SDS011;3451;52.476;13.316;2023-03-23T08:03:49;3.67;;;2.00;;
6825;SDS011;3451;52.476;13.316;2023-03-23T08:06:15;3.30;;;2.27;;
6825;SDS011;3451;52.476;13.316;2023-03-23T08:08:40;3.77;;;2.00;;
6825;SDS011;3451;52.476;13.316;2023-03-23T08:11:05;4.67;;;2.00;;
6825;SDS011;3451;52.476;13.316;2023-03-23T08:13:31;2.80;;;1.90;;
6825;SDS011;3451;52.476;13.316;2023-03-23T08:15:58;3.93;;;2.03;;
6825;SDS011;3451;52.476;13.316;2023-03-23T08:18:23;3.67;;;2.07;;
6825;SDS011;3451;52.476;13.316;2023-03-23T08:20:49;3.50;;;1.97;;
6825;SDS011;3451;52.476;13.316;2023-03-23T08:23:15;4.37;;;2.13;;
6825;SDS011;3451;52.476;13.316;2023-03-23T08:25:41;4.13;;;2.00;;
6825;SDS011;3451;52.476;13.316;2023-03-23T08:28:07;3.37;;;2.10;;
6825;SDS011;3451;52.476;13.316;2023-03-23T08:30:34;2.67;;;1.60;;
6825;SDS011;3451;52.476;13.316;2023-03-23T08:33:01;2.90;;;1.90;;
6825;SDS011;3451;52.476;13.316;2023-03-23T08:35:26;3.67;;;2.53;;
6825;SDS011;3451;52.476;13.316;2023-03-23T08:37:51;3.13;;;1.90;;
6825;SDS011;3451;52.476;13.316;2023-03-23T08:40:18;3.10;;;2.00;;
6825;SDS011;3451;52.476;13.316;2023-03-23T08:42:44;4.07;;;1.87;;
6825;SDS011;3451;52.476;13.316;2023-03-23T08:45:10;3.50;;;2.00;;
6825;SDS011;3451;52.476;13.316;2023-03-23T08:47:36;1.97;;;1.77;;
6825;SDS011;3451;52.476;13.316;2023-03-23T08:50:02;2.33;;;1.80;;
6825;SDS011;3451;52.476;13.316;2023-03-23T08:52:28;3.70;;;1.97;;
6825;SDS011;3451;52.476;13.316;2023-03-23T08:54:54;3.33;;;1.77;;
6825;SDS011;3451;52.476;13.316;2023-03-23T08:57:19;4.07;;;1.93;;
6825;SDS011;3451;52.476;13.316;2023-03-23T08:59:44;5.20;;;2.30;;
6825;SDS011;3451;52.476;13.316;2023-03-23T09:02:10;4.20;;;1.97;;
6825;SDS011;3451;52.476;13.316;2023-03-23T09:04:37;3.50;;;1.80;;
6825;SDS011;3451;52.476;13.316;2023-03-23T09:07:02;4.17;;;2.07;;
6825;SDS011;3451;52.476;13.316;2023-03-23T09:09:28;3.17;;;1.77;;
6825;SDS011;3451;52.476;13.316;2023-03-23T09:11:53;5.90;;;1.90;;
6825;SDS011;3451;52.476;13.316;2023-03-23T09:14:18;3.30;;;1.70;;
6825;SDS011;3451;52.476;13.316;2023-03-23T09:16:44;4.30;;;2.00;;
6825;SDS011;3451;52.476;13.316;2023-03-23T09:19:10;3.97;;;1.73;;
6825;SDS011;3451;52.476;13.316;2023-03-23T09:21:35;3.10;;;1.80;;
6825;SDS011;3451;52.476;13.316;2023-03-23T09:24:01;2.20;;;1.70;;
6825;SDS011;3451;52.476;13.316;2023-03-23T09:26:26;4.30;;;1.80;;
6825;SDS011;3451;52.476;13.316;2023-03-23T09:28:52;4.73;;;1.73;;
6825;SDS011;3451;52.476;13.316;2023-03-23T09:31:17;3.10;;;1.77;;
6825;SDS011;3451;52.476;13.316;2023-03-23T09:33:45;6.40;;;2.10;;
6825;SDS011;3451;52.476;13.316;2023-03-23T09:36:11;3.27;;;1.60;;
6825;SDS011;3451;52.476;13.316;2023-03-23T09:38:39;3.57;;;1.90;;
6825;SDS011;3451;52.476;13.316;2023-03-23T09:41:34;2.37;;;1.60;;
6825;SDS011;3451;52.476;13.316;2023-03-23T09:46:49;4.10;;;1.93;;
6825;SDS011;3451;52.476;13.316;2023-03-23T09:49:19;3.80;;;2.00;;
6825;SDS011;3451;52.476;13.316;2023-03-23T09:54:31;3.90;;;1.60;;
6825;SDS011;3451;52.476;13.316;2023-03-23T09:56:59;2.77;;;1.40;;
6825;SDS011;3451;52.476;13.316;2023-03-23T09:59:29;1.60;;;1.20;;
6825;SDS011;3451;52.476;13.316;2023-03-23T10:01:58;3.27;;;1.40;;
6825;SDS011;3451;52.476;13.316;2023-03-23T10:07:13;4.60;;;1.83;;
6825;SDS011;3451;52.476;13.316;2023-03-23T10:09:38;1.50;;;1.30;;
6825;SDS011;3451;52.476;13.316;2023-03-23T10:12:19;4.80;;;1.30;;
6825;SDS011;3451;52.476;13.316;2023-03-23T10:17:17;2.70;;;1.30;;
6825;SDS011;3451;52.476;13.316;2023-03-23T10:20:09;2.33;;;1.50;;
6825;SDS011;3451;52.476;13.316;2023-03-23T10:22:52;2.37;;;1.50;;
6825;SDS011;3451;52.476;13.316;2023-03-23T10:25:19;2.40;;;1.20;;
6825;SDS011;3451;52.476;13.316;2023-03-23T10:28:01;2.50;;;1.40;;
6825;SDS011;3451;52.476;13.316;2023-03-23T10:30:30;2.33;;;1.33;;
6825;SDS011;3451;52.476;13.316;2023-03-23T10:32:58;2.00;;;1.30;;
6825;SDS011;3451;52.476;13.316;2023-03-23T10:35:28;2.43;;;1.40;;
6825;SDS011;3451;52.476;13.316;2023-03-23T10:37:56;3.80;;;1.43;;
6825;SDS011;3451;52.476;13.316;2023-03-23T10:40:25;4.23;;;1.40;;
6825;SDS011;3451;52.476;13.316;2023-03-23T10:42:52;3.50;;;1.40;;
6825;SDS011;3451;52.476;13.316;2023-03-23T10:45:21;3.07;;;1.47;;
6825;SDS011;3451;52.476;13.316;2023-03-23T10:50:23;3.47;;;1.20;;
6825;SDS011;3451;52.476;13.316;2023-03-23T10:52:48;3.30;;;1.40;;
6825;SDS011;3451;52.476;13.316;2023-03-23T10:55:18;3.67;;;1.53;;
6825;SDS011;3451;52.476;13.316;2023-03-23T10:57:45;2.93;;;1.10;;
6825;SDS011;3451;52.476;13.316;2023-03-23T11:02:41;2.47;;;1.23;;
6825;SDS011;3451;52.476;13.316;2023-03-23T11:05:13;2.20;;;1.20;;
6825;SDS011;3451;52.476;13.316;2023-03-23T11:07:40;3.00;;;1.30;;
6825;SDS011;3451;52.476;13.316;2023-03-23T11:10:22;1.97;;;1.40;;
6825;SDS011;3451;52.476;13.316;2023-03-23T11:12:49;1.77;;;1.10;;
6825;SDS011;3451;52.476;13.316;2023-03-23T11:15:16;2.90;;;1.47;;
6825;SDS011;3451;52.476;13.316;2023-03-23T11:17:54;2.47;;;1.47;;
6825;SDS011;3451;52.476;13.316;2023-03-23T11:20:20;2.33;;;1.20;;
6825;SDS011;3451;52.476;13.316;2023-03-23T11:22:46;2.63;;;1.30;;
6825;SDS011;3451;52.476;13.316;2023-03-23T11:25:12;1.83;;;1.10;;
6825;SDS011;3451;52.476;13.316;2023-03-23T11:27:37;2.27;;;1.40;;
6825;SDS011;3451;52.476;13.316;2023-03-23T11:30:11;2.67;;;1.80;;
6825;SDS011;3451;52.476;13.316;2023-03-23T11:32:42;4.57;;;1.50;;
6825;SDS011;3451;52.476;13.316;2023-03-23T11:35:14;3.23;;;1.50;;
6825;SDS011;3451;52.476;13.316;2023-03-23T11:37:41;2.30;;;1.33;;
6825;SDS011;3451;52.476;13.316;2023-03-23T11:42:44;2.33;;;1.50;;
6825;SDS011;3451;52.476;13.316;2023-03-23T11:45:22;3.70;;;1.50;;
6825;SDS011;3451;52.476;13.316;2023-03-23T11:50:43;2.50;;;1.67;;
6825;SDS011;3451;52.476;13.316;2023-03-23T11:53:14;2.40;;;1.57;;
6825;SDS011;3451;52.476;13.316;2023-03-23T11:58:13;2.27;;;1.30;;
6825;SDS011;3451;52.476;13.316;2023-03-23T12:00:48;2.27;;;1.37;;
6825;SDS011;3451;52.476;13.316;2023-03-23T12:03:15;2.50;;;1.20;;
6825;SDS011;3451;52.476;13.316;2023-03-23T12:10:44;3.47;;;1.40;;
6825;SDS011;3451;52.476;13.316;2023-03-23T12:13:19;2.73;;;1.53;;
6825;SDS011;3451;52.476;13.316;2023-03-23T12:21:36;4.47;;;1.60;;
6825;SDS011;3451;52.476;13.316;2023-03-23T12:26:30;5.17;;;1.33;;
6825;SDS011;3451;52.476;13.316;2023-03-23T12:45:12;2.67;;;1.70;;
6825;SDS011;3451;52.476;13.316;2023-03-23T12:47:48;2.30;;;1.30;;
6825;SDS011;3451;52.476;13.316;2023-03-23T12:50:22;2.83;;;1.30;;
6825;SDS011;3451;52.476;13.316;2023-03-23T12:57:56;3.50;;;1.60;;
6825;SDS011;3451;52.476;13.316;2023-03-23T13:00:26;3.90;;;1.60;;
6825;SDS011;3451;52.476;13.316;2023-03-23T13:02:55;4.17;;;1.60;;
6825;SDS011;3451;52.476;13.316;2023-03-23T13:07:55;2.50;;;1.33;;
6825;SDS011;3451;52.476;13.316;2023-03-23T13:10:22;2.40;;;1.30;;
6825;SDS011;3451;52.476;13.316;2023-03-23T13:12:49;3.73;;;1.63;;
6825;SDS011;3451;52.476;13.316;2023-03-23T13:20:14;4.13;;;1.73;;
6825;SDS011;3451;52.476;13.316;2023-03-23T13:22:47;1.97;;;1.20;;
6825;SDS011;3451;52.476;13.316;2023-03-23T13:25:18;1.93;;;1.57;;
6825;SDS011;3451;52.476;13.316;2023-03-23T13:27:55;4.57;;;1.40;;
6825;SDS011;3451;52.476;13.316;2023-03-23T13:30:21;3.90;;;1.63;;
6825;SDS011;3451;52.476;13.316;2023-03-23T13:32:47;4.03;;;1.50;;
6825;SDS011;3451;52.476;13.316;2023-03-23T13:35:13;3.63;;;1.47;;
6825;SDS011;3451;52.476;13.316;2023-03-23T13:37:45;2.90;;;1.50;;
6825;SDS011;3451;52.476;13.316;2023-03-23T13:40:24;3.00;;;1.70;;
6825;SDS011;3451;52.476;13.316;2023-03-23T13:42:54;2.87;;;1.20;;
6825;SDS011;3451;52.476;13.316;2023-03-23T13:45:22;3.57;;;1.60;;
6825;SDS011;3451;52.476;13.316;2023-03-23T13:47:48;4.80;;;1.90;;
6825;SDS011;3451;52.476;13.316;2023-03-23T14:00:47;5.53;;;1.30;;
6825;SDS011;3451;52.476;13.316;2023-03-23T14:03:14;2.13;;;1.30;;
6825;SDS011;3451;52.476;13.316;2023-03-23T14:08:36;3.53;;;1.50;;
6825;SDS011;3451;52.476;13.316;2023-03-23T14:11:09;2.97;;;1.43;;
6825;SDS011;3451;52.476;13.316;2023-03-23T14:16:03;3.10;;;1.57;;
6825;SDS011;3451;52.476;13.316;2023-03-23T14:18:36;3.33;;;1.47;;
6825;SDS011;3451;52.476;13.316;2023-03-23T14:21:02;4.80;;;1.53;;
6825;SDS011;3451;52.476;13.316;2023-03-23T14:23:27;4.70;;;1.80;;
6825;SDS011;3451;52.476;13.316;2023-03-23T14:25:56;4.23;;;1.30;;
6825;SDS011;3451;52.476;13.316;2023-03-23T14:28:23;2.80;;;1.27;;
6825;SDS011;3451;52.476;13.316;2023-03-23T14:30:52;3.80;;;1.67;;
6825;SDS011;3451;52.476;13.316;2023-03-23T14:33:17;2.83;;;1.50;;
6825;SDS011;3451;52.476;13.316;2023-03-23T14:35:44;4.23;;;1.40;;
6825;SDS011;3451;52.476;13.316;2023-03-23T14:38:15;4.93;;;1.63;;
6825;SDS011;3451;52.476;13.316;2023-03-23T14:40:41;4.40;;;1.57;;
6825;SDS011;3451;52.476;13.316;2023-03-23T14:43:07;4.13;;;1.43;;
6825;SDS011;3451;52.476;13.316;2023-03-23T14:45:33;2.40;;;1.30;;
6825;SDS011;3451;52.476;13.316;2023-03-23T14:48:00;4.13;;;1.37;;
6825;SDS011;3451;52.476;13.316;2023-03-23T14:50:27;3.97;;;1.63;;
6825;SDS011;3451;52.476;13.316;2023-03-23T14:52:55;2.60;;;1.60;;
6825;SDS011;3451;52.476;13.316;2023-03-23T14:55:21;2.67;;;1.47;;
6825;SDS011;3451;52.476;13.316;2023-03-23T14:57:47;3.73;;;1.30;;
6825;SDS011;3451;52.476;13.316;2023-03-23T15:00:17;3.40;;;1.47;;
6825;SDS011;3451;52.476;13.316;2023-03-23T15:02:44;2.50;;;1.40;;
6825;SDS011;3451;52.476;13.316;2023-03-23T15:05:11;3.60;;;1.40;;
6825;SDS011;3451;52.476;13.316;2023-03-23T15:07:38;1.83;;;1.30;;
6825;SDS011;3451;52.476;13.316;2023-03-23T15:10:07;3.30;;;1.60;;
6825;SDS011;3451;52.476;13.316;2023-03-23T15:12:33;3.40;;;1.73;;
6825;SDS011;3451;52.476;13.316;2023-03-23T15:15:03;2.53;;;1.23;;
6825;SDS011;3451;52.476;13.316;2023-03-23T15:17:36;3.90;;;1.60;;
6825;SDS011;3451;52.476;13.316;2023-03-23T15:20:19;3.53;;;1.27;;
6825;SDS011;3451;52.476;13.316;2023-03-23T15:22:46;2.73;;;1.67;;
6825;SDS011;3451;52.476;13.316;2023-03-23T15:25:17;5.33;;;1.60;;
6825;SDS011;3451;52.476;13.316;2023-03-23T15:27:43;3.37;;;1.47;;
6825;SDS011;3451;52.476;13.316;2023-03-23T15:32:51;3.93;;;1.40;;
6825;SDS011;3451;52.476;13.316;2023-03-23T15:35:17;2.23;;;1.10;;
6825;SDS011;3451;52.476;13.316;2023-03-23T15:37:44;2.67;;;1.23;;
6825;SDS011;3451;52.476;13.316;2023-03-23T15:40:20;3.70;;;1.30;;
6825;SDS011;3451;52.476;13.316;2023-03-23T15:42:46;4.23;;;1.73;;
6825;SDS011;3451;52.476;13.316;2023-03-23T15:50:09;5.67;;;1.33;;
6825;SDS011;3451;52.476;13.316;2023-03-23T15:52:36;2.90;;;1.40;;
6825;SDS011;3451;52.476;13.316;2023-03-23T15:55:01;3.00;;;1.50;;
6825;SDS011;3451;52.476;13.316;2023-03-23T15:57:26;2.03;;;1.00;;
6825;SDS011;3451;52.476;13.316;2023-03-23T15:59:52;2.70;;;1.20;;
6825;SDS011;3451;52.476;13.316;2023-03-23T16:02:19;4.80;;;1.67;;
6825;SDS011;3451;52.476;13.316;2023-03-23T16:04:47;3.63;;;1.40;;
6825;SDS011;3451;52.476;13.316;2023-03-23T16:07:14;2.03;;;1.27;;
6825;SDS011;3451;52.476;13.316;2023-03-23T16:09:40;2.30;;;1.27;;
6825;SDS011;3451;52.476;13.316;2023-03-23T16:12:10;3.60;;;1.40;;
6825;SDS011;3451;52.476;13.316;2023-03-23T16:14:38;3.03;;;1.33;;
6825;SDS011;3451;52.476;13.316;2023-03-23T16:17:05;4.50;;;1.40;;
6825;SDS011;3451;52.476;13.316;2023-03-23T16:19:31;3.00;;;1.50;;
6825;SDS011;3451;52.476;13.316;2023-03-23T16:21:58;3.83;;;1.17;;
6825;SDS011;3451;52.476;13.316;2023-03-23T16:24:24;3.97;;;1.10;;
6825;SDS011;3451;52.476;13.316;2023-03-23T16:26:50;5.10;;;1.40;;
6825;SDS011;3451;52.476;13.316;2023-03-23T16:29:16;2.73;;;1.23;;
6825;SDS011;3451;52.476;13.316;2023-03-23T16:32:03;2.70;;;1.17;;
6825;SDS011;3451;52.476;13.316;2023-03-23T16:34:29;4.90;;;2.13;;
6825;SDS011;3451;52.476;13.316;2023-03-23T16:36:58;3.13;;;1.40;;
6825;SDS011;3451;52.476;13.316;2023-03-23T16:39:25;1.30;;;1.10;;